Flight Track Log - Related Links

Times and Time Zones

All times are in EST time to prevent confusion due to time zone crossing. See the EJA951 flight status page for this flight to view local times or setup timezone preferences in your user account.

Time Position Orientation Groundspeed Altitude Reporting Facility
EST Latitude Longitude Course Direction KTS MPH feet Rate Location/Type
Wed 05:56:02 PM 29.9839 -95.3553 356° North 155 178 1,100  Level Houston Center
Wed 05:56:57 PM 30.0303 -95.3594 356° North 199 229 3,800 2,100 Climbing Houston Center
Wed 05:57:22 PM 30.0461 -95.3608 356° North 192 221 3,900 197 Climbing Houston Center
Wed 05:57:58 PM 30.1011 -95.3533 North 275 316 4,000  Climbing Houston Center
Wed 05:58:24 PM 30.1217 -95.3511 North 255 293 3,900 2,250 Descending Houston Center
Wed 05:59:26 PM 30.2000 -95.3900 337° Northwest 258 297 7,300 3,000 Climbing Houston Center
Wed 06:00:28 PM 30.2606 -95.4372 326° Northwest 261 300 10,100 2,129 Climbing Houston Center
Wed 06:01:30 PM 30.3256 -95.4869 327° Northwest 272 313 11,700 1,306 Climbing Houston Center
Wed 06:02:32 PM 30.4022 -95.5472 326° Northwest 324 373 12,800 1,258 Climbing Houston Center
Wed 06:03:34 PM 30.4864 -95.6122 326° Northwest 356 410 14,300 1,440 Climbing Houston Center
Wed 06:04:37 PM 30.5936 -95.6828 330° Northwest 370 426 15,800 1,296 Climbing Houston Center
Wed 06:05:39 PM 30.6986 -95.7386 335° Northwest 389 448 17,000 1,210 Climbing Houston Center
Wed 06:06:41 PM 30.8006 -95.7939 335° Northwest 400 460 18,300 1,161 Climbing Houston Center
Wed 06:07:43 PM 30.9033 -95.8486 335° Northwest 404 465 19,400 1,113 Climbing Houston Center
Wed 06:08:45 PM 31.0089 -95.9053 335° Northwest 413 475 20,600 1,452 Climbing Houston Center
Wed 06:09:47 PM 31.1128 -95.9608 335° Northwest 410 472 22,400 1,210 Climbing Houston Center
Wed 06:10:49 PM 31.2231 -96.0053 341° North 416 479 23,100 774 Climbing Houston Center
Wed 06:11:51 PM 31.3411 -96.0517 341° North 439 505 24,000 1,065 Climbing Houston Center
Wed 06:12:53 PM 31.4781 -96.1044 342° North 449 517 25,300 1,016 Climbing Houston Center
Wed 06:13:55 PM 31.6089 -96.1211 354° North 485 558 26,100 849 Climbing Houston Center
Wed 06:14:39 PM 31.7225 -96.1239 359° North 478 550 26,800 981 Climbing Fort Worth Center
Wed 06:15:39 PM 31.8433 -96.1197 North 490 564 27,800 1,000 Climbing Fort Worth Center
Wed 06:16:39 PM 31.9814 -96.1203 360° North 490 564 28,800 800 Climbing Fort Worth Center
Wed 06:17:39 PM 32.1192 -96.1331 356° North 490 564 29,400 700 Climbing Fort Worth Center
Wed 06:18:39 PM 32.2428 -96.1853 340° North 489 563 30,200 1,100 Climbing Fort Worth Center
Wed 06:19:39 PM 32.3253 -96.2947 312° West 455 524 31,600 1,500 Climbing Fort Worth Center
Wed 06:20:39 PM 32.3950 -96.4072 306° West 429 494 33,200 1,550 Climbing Fort Worth Center
Wed 06:21:39 PM 32.4650 -96.5172 307° West 423 487 34,700 1,400 Climbing Fort Worth Center
Wed 06:22:39 PM 32.5344 -96.6272 307° West 423 487 36,000 1,300 Climbing Fort Worth Center
Wed 06:23:39 PM 32.6083 -96.7400 308° West 429 494 37,300 1,300 Climbing Fort Worth Center
Wed 06:24:39 PM 32.6797 -96.8506 308° West 429 494 38,600 1,300 Climbing Fort Worth Center
Wed 06:25:39 PM 32.7492 -96.9614 307° West 429 494 39,900 700 Climbing Fort Worth Center
Wed 06:26:39 PM 32.8308 -97.0869 308° West 434 499 40,000 50 Climbing Fort Worth Center
Wed 06:27:39 PM 32.9064 -97.2056 307° West 434 499 40,000  Level Fort Worth Center
Wed 06:28:39 PM 32.9942 -97.3094 315° West 464 534 40,000  Level Fort Worth Center
Wed 06:29:39 PM 33.0983 -97.4433 313° West 492 566 40,000  Level Fort Worth Center
Wed 06:30:39 PM 33.1861 -97.5575 313° West 486 559 40,000  Level Fort Worth Center
Wed 06:31:39 PM 33.2778 -97.6719 314° West 481 554 40,000  Level Fort Worth Center
Wed 06:32:39 PM 33.3672 -97.7889 313° West 481 554 40,000  Level Fort Worth Center
Wed 06:33:39 PM 33.4586 -97.9039 314° West 476 548 40,000  Level Fort Worth Center
Wed 06:34:39 PM 33.5458 -98.0192 312° West 476 548 40,000  Level Fort Worth Center
Wed 06:35:39 PM 33.6369 -98.1344 314° West 476 548 40,000  Level Fort Worth Center
Wed 06:36:39 PM 33.7239 -98.2475 313° West 470 541 40,000  Level Fort Worth Center
Wed 06:37:39 PM 33.8108 -98.3633 312° West 470 541 40,000  Level Fort Worth Center
Wed 06:38:39 PM 33.9017 -98.4794 313° West 470 541 40,000  Level Fort Worth Center
Wed 06:39:39 PM 33.9861 -98.5958 311° West 470 541 40,000  Level Fort Worth Center
Wed 06:40:39 PM 34.0475 -98.7269 299° West 465 535 40,000  Level Fort Worth Center
Wed 06:41:39 PM 34.0942 -98.8556 294° West 452 520 40,000  Level Fort Worth Center
Wed 06:42:39 PM 34.1508 -98.9894 297° West 452 520 40,000  Level Fort Worth Center
Wed 06:43:39 PM 34.2075 -99.1186 298° West 451 519 40,000  Level Fort Worth Center
Wed 06:44:39 PM 34.2619 -99.2531 296° West 440 506 40,000  Level Fort Worth Center
Wed 06:45:39 PM 34.3183 -99.3900 297° West 451 519 40,000 300 Level Fort Worth Center
Wed 06:46:39 PM 34.3975 -99.5250 305° West 446 513 40,600 750 Climbing Fort Worth Center
Wed 06:47:39 PM 34.4664 -99.6503 304° West 446 513 41,500 917 Climbing Fort Worth Center
Wed 06:49:16 PM 34.5778 -99.8506 304° West 437 503 43,000 566 Climbing Albuquerque Center
Wed 06:50:18 PM 34.6458 -99.9722 304° West 434 499 43,000  Level Albuquerque Center
Wed 06:51:19 PM 34.7175 -100.0989 305° West 445 512 43,000  Level Albuquerque Center
Wed 06:52:21 PM 34.7892 -100.2261 304° West 452 520 43,000  Level Albuquerque Center
Wed 06:53:23 PM 34.8608 -100.3550 304° West 456 525 43,000  Level Albuquerque Center
Wed 06:54:25 PM 34.9358 -100.4892 304° West 458 527 43,000  Level Albuquerque Center
Wed 06:55:26 PM 35.0061 -100.6178 304° West 458 527 43,000  Level Albuquerque Center
Wed 06:56:28 PM 35.0781 -100.7464 304° West 460 529 43,000  Level Albuquerque Center
Wed 06:57:30 PM 35.1486 -100.8756 304° West 458 527 43,000  Level Albuquerque Center
Wed 06:58:32 PM 35.2328 -101.0308 304° West 459 528 43,000  Level Albuquerque Center
Wed 06:59:33 PM 35.3033 -101.1589 304° West 458 527 43,000  Level Albuquerque Center
Wed 07:00:35 PM 35.3739 -101.2883 304° West 459 528 43,000  Level Albuquerque Center
Wed 07:01:37 PM 35.4475 -101.4239 304° West 462 532 43,000  Level Albuquerque Center
Wed 07:02:38 PM 35.5119 -101.5431 304° West 457 526 43,000  Level Albuquerque Center
Wed 07:03:40 PM 35.5931 -101.6972 303° West 453 521 43,000  Level Albuquerque Center
Wed 07:04:42 PM 35.6614 -101.8253 303° West 453 521 43,000  Level Albuquerque Center
Wed 07:05:44 PM 35.7306 -101.9539 304° West 454 522 43,000  Level Albuquerque Center
Wed 07:06:45 PM 35.7986 -102.0842 303° West 454 522 43,000  Level Albuquerque Center
Wed 07:07:47 PM 35.8653 -102.2122 303° West 449 517 43,000  Level Albuquerque Center
Wed 07:08:49 PM 35.9339 -102.3428 303° West 452 520 43,000  Level Albuquerque Center
Wed 07:09:50 PM 36.0153 -102.4967 303° West 449 517 43,000  Level Albuquerque Center
Wed 07:10:52 PM 36.0822 -102.6269 302° West 449 517 43,000  Level Albuquerque Center
Wed 07:11:54 PM 36.1497 -102.7556 303° West 448 516 43,000  Level Albuquerque Center
Wed 07:12:55 PM 36.2214 -102.8942 303° West 445 512 43,000  Level Albuquerque Center
Wed 07:13:57 PM 36.2889 -103.0239 303° West 446 513 43,000  Level Albuquerque Center
Wed 07:14:59 PM 36.3556 -103.1531 303° West 443 510 43,000  Level Albuquerque Center
Wed 07:16:00 PM 36.4219 -103.2822 303° West 443 510 43,000  Level Albuquerque Center
Wed 07:17:02 PM 36.4872 -103.4119 302° West 441 507 43,000  Level Albuquerque Center
Wed 07:18:04 PM 36.5542 -103.5439 302° West 446 513 43,000  Level Albuquerque Center
Wed 07:19:05 PM 36.6200 -103.6747 302° West 445 512 43,000  Level Albuquerque Center
Wed 07:20:07 PM 36.6936 -103.8194 302° West 446 513 43,000  Level Albuquerque Center
Wed 07:21:08 PM 36.7569 -103.9481 302° West 450 518 43,000  Level Albuquerque Center
Wed 07:22:10 PM 36.8322 -104.0947 303° West 449 517 43,000  Level Albuquerque Center
Wed 07:23:12 PM 36.8961 -104.2225 302° West 450 518 43,000  Level Albuquerque Center
Wed 07:24:13 PM 36.9597 -104.3508 302° West 452 520 43,000  Level Albuquerque Center
Wed 07:24:58 PM 37.0125 -104.4594 301° West 454 522 43,000 56 Level Denver Center
Wed 07:26:00 PM 37.0767 -104.5892 302° West 455 524 43,100  Climbing Denver Center
Wed 07:27:02 PM 37.1511 -104.7394 302° West 453 521 43,000 -48 Descending Denver Center
Wed 07:28:04 PM 37.2142 -104.8714 301° West 457 526 43,000  Level Denver Center
Wed 07:29:06 PM 37.2881 -105.0225 302° West 455 524 43,000  Level Denver Center
Wed 07:30:08 PM 37.3511 -105.1522 301° West 453 521 43,000  Level Denver Center
Wed 07:31:10 PM 37.4164 -105.2869 301° West 447 514 43,000  Level Denver Center
Wed 07:32:12 PM 37.4883 -105.4372 301° West 448 516 43,000  Level Denver Center
Wed 07:33:14 PM 37.5572 -105.5786 302° West 445 512 43,000  Level Denver Center
Wed 07:34:16 PM 37.6175 -105.7064 301° West 442 509 43,000  Level Denver Center
Wed 07:35:18 PM 37.6792 -105.8350 301° West 445 512 43,000  Level Denver Center
Wed 07:36:20 PM 37.7508 -105.9864 301° West 446 513 43,000  Level Denver Center
Wed 07:37:23 PM 37.8117 -106.1147 301° West 446 513 43,000  Level Denver Center
Wed 07:38:25 PM 37.8803 -106.2647 300° West 441 507 43,000  Level Denver Center
Wed 07:39:27 PM 37.9411 -106.3933 301° West 442 509 43,000  Level Denver Center
Wed 07:40:29 PM 38.0131 -106.5497 300° West 443 510 43,000  Level Denver Center
Wed 07:41:31 PM 38.0744 -106.6806 301° West 450 518 43,000  Level Denver Center
Wed 07:42:33 PM 38.1350 -106.8108 301° West 448 516 43,000  Level Denver Center
Wed 07:43:35 PM 38.1997 -106.9533 300° West 451 519 43,000  Level Denver Center
Wed 07:44:37 PM 38.2628 -107.0903 300° West 448 516 43,000  Level Denver Center
Wed 07:45:39 PM 38.3336 -107.2506 299° West 450 518 43,000  Level Denver Center
Wed 07:46:41 PM 38.3944 -107.3836 300° West 453 521 43,000  Level Denver Center
Wed 07:47:43 PM 38.4642 -107.5386 300° West 451 519 43,000  Level Denver Center
Wed 07:48:45 PM 38.5239 -107.6731 300° West 454 522 43,000  Level Denver Center
Wed 07:49:47 PM 38.5936 -107.8289 300° West 452 520 43,000  Level Denver Center
Wed 07:50:49 PM 38.6528 -107.9625 300° West 451 519 43,000  Level Denver Center
Wed 07:51:51 PM 38.7219 -108.1183 300° West 450 518 43,000  Level Denver Center
Wed 07:52:53 PM 38.7808 -108.2528 299° West 451 519 43,000  Level Denver Center
Wed 07:53:55 PM 38.8492 -108.4100 299° West 451 519 43,000  Level Denver Center
Wed 07:54:57 PM 38.9075 -108.5444 299° West 450 518 43,000  Level Denver Center
Wed 07:56:00 PM 38.9658 -108.6778 299° West 447 514 43,000 -96 Level Denver Center
Wed 07:57:02 PM 39.0339 -108.8356 299° West 449 517 42,800 -774 Descending Denver Center
Wed 07:58:04 PM 39.0917 -108.9689 299° West 445 512 41,400 -1,500 Descending Denver Center
Wed 07:59:06 PM 39.1600 -109.1278 299° West 451 519 39,700 -1,548 Descending Denver Center
Wed 08:00:08 PM 39.2181 -109.2658 299° West 453 521 38,200 -1,548 Descending Denver Center
Wed 08:01:10 PM 39.2861 -109.4253 299° West 452 520 36,500 -1,548 Descending Denver Center
Wed 08:02:12 PM 39.3444 -109.5644 298° West 457 526 35,000 -1,403 Descending Denver Center
Wed 08:03:14 PM 39.4047 -109.7075 299° West 467 537 33,600 -1,452 Descending Denver Center
Wed 08:04:16 PM 39.4775 -109.8792 299° West 481 554 32,000 -774 Descending Denver Center
Wed 08:05:18 PM 39.5381 -110.0242 298° West 480 552 32,000  Level Denver Center
Wed 08:06:20 PM 39.6075 -110.1931 298° West 476 548 32,000  Level Denver Center
Wed 08:07:22 PM 39.6678 -110.3375 298° West 475 547 32,000 -145 Level Denver Center
Wed 08:08:24 PM 39.7364 -110.5069 298° West 476 548 31,700 -1,191 Descending Denver Center
Wed 08:09:43 PM 39.8131 -110.6997 297° West 471 542 29,200 -1,787 Descending Salt Lake Center
Wed 08:10:45 PM 39.8678 -110.8444 296° West 467 537 27,500 -1,805 Descending Salt Lake Center
Wed 08:11:46 PM 39.9278 -111.0053 296° West 448 516 25,500 -1,805 Descending Salt Lake Center
Wed 08:12:48 PM 39.9792 -111.1400 296° West 438 504 23,800 -1,742 Descending Salt Lake Center
Wed 08:13:50 PM 40.0364 -111.2947 296° West 425 489 21,900 -1,659 Descending Salt Lake Center
Wed 08:14:51 PM 40.0814 -111.4167 296° West 417 480 20,400 -1,500 Descending Salt Lake Center
Wed 08:15:46 PM 40.1319 -111.5667 294° West 411 473 19,000 -1,355 Descending Salt Lake Center
Wed 08:15:53 PM 40.1314 -111.5511 93° East 412 474 19,000  Level Salt Lake Center
Wed 08:16:23 PM 40.1614 -111.6492 292° West 410 472 19,000  Level Salt Lake Center
Wed 08:16:55 PM 40.1928 -111.7119 303° West 411 473 19,000  Level Salt Lake Center
Wed 08:17:24 PM 40.2225 -111.7717 303° West 405 466 19,000  Level Salt Lake Center
Wed 08:17:57 PM 40.2656 -111.8256 316° Northwest 402 463 19,000 -492 Level Salt Lake Center
Wed 08:18:25 PM 40.2978 -111.8783 309° West 397 457 18,500 -1,279 Descending Salt Lake Center
Wed 08:18:58 PM 40.3381 -111.9308 315° West 391 450 17,700 -2,100 Descending Salt Lake Center
Wed 08:19:25 PM 40.3733 -111.9878 309° West 397 457 16,400 -2,419 Descending Salt Lake Center
Wed 08:20:00 PM 40.4167 -112.0331 322° Northwest 398 458 15,200 -2,656 Descending Salt Lake Center
Wed 08:20:26 PM 40.4678 -112.0631 336° Northwest 391 450 13,700 -2,323 Descending Salt Lake Center
Wed 08:21:02 PM 40.5211 -112.0647 359° North 384 442 12,800 -1,869 Descending Salt Lake Center
Wed 08:21:27 PM 40.5714 -112.0758 350° North 371 427 11,800 -1,770 Descending Salt Lake Center
Wed 08:22:03 PM 40.6228 -112.0781 358° North 365 420 11,000 -787 Descending Salt Lake Center
Wed 08:22:28 PM 40.6706 -112.0878 351° North 329 379 11,000  Level Salt Lake Center
Wed 08:23:05 PM 40.7083 -112.0878 360° North 290 334 11,000  Level Salt Lake Center
Wed 08:23:29 PM 40.7450 -112.0936 353° North 256 295 11,000  Level Salt Lake Center
Wed 08:24:07 PM 40.7750 -112.0939 360° North 239 275 11,000 -100 Level Salt Lake Center
Wed 08:24:29 PM 40.8108 -112.0997 353° North 236 272 10,900 -968 Descending Salt Lake Center
Wed 08:25:09 PM 40.8528 -112.0933 North 231 266 10,000 -1,377 Descending Salt Lake Center
Wed 08:25:30 PM 40.8761 -112.0919 North 230 265 9,500 -1,770 Descending Salt Lake Center
Wed 08:26:10 PM 40.9153 -112.0864 North 225 259 8,200 -1,869 Descending Salt Lake Center
Wed 08:26:31 PM 40.9336 -112.0667 39° Northeast 233 268 7,600 -1,742 Descending Salt Lake Center
Wed 08:27:12 PM 40.9308 -112.0125 94° East 237 273 6,400 -1,574 Descending Salt Lake Center
Wed 08:27:32 PM 40.9239 -111.9847 108° East 235 270 6,000 -484 Descending Salt Lake Center
Wed 08:28:14 PM 40.8956 -111.9633 150° Southeast 197 227 5,900 -295 Descending Salt Lake Center
Wed 08:28:33 PM 40.8789 -111.9633 180° South 164 189 5,700 -590 Descending Salt Lake Center
Wed 08:29:15 PM 40.8544 -111.9625 179° South 149 171 5,300 -590 Descending Salt Lake Center
Wed 08:29:34 PM 40.8425 -111.9644 187° South 131 151 5,100 -581 Descending Salt Lake Center
Wed 08:30:17 PM 40.8200 -111.9617 175° South 126 145 4,700 -700 Descending Salt Lake Center
Wed 08:30:34 PM 40.8056 -111.9628 183° South 131 151 4,400 -484 Descending Salt Lake Center
Wed 08:31:19 PM 40.7861 -111.9619 178° South 123 142 4,200 -267 Descending Salt Lake Center

Login

Don't have an account? Register now (free) for customized features, flight alerts, and more!